sensor_id;sensor_type;location;lat;lon;timestamp;P1;durP1;ratioP1;P2;durP2;ratioP2
67712;SDS011;54503;55.784;49.138;2022-10-16T00:02:31;19.43;;;6.60;;
67712;SDS011;54503;55.784;49.138;2022-10-16T00:07:36;15.45;;;6.15;;
67712;SDS011;54503;55.784;49.138;2022-10-16T00:12:41;16.15;;;6.20;;
67712;SDS011;54503;55.784;49.138;2022-10-16T00:17:47;14.73;;;5.62;;
67712;SDS011;54503;55.784;49.138;2022-10-16T00:22:53;14.85;;;6.28;;
67712;SDS011;54503;55.784;49.138;2022-10-16T00:27:59;14.63;;;5.43;;
67712;SDS011;54503;55.784;49.138;2022-10-16T00:33:18;12.03;;;5.03;;
67712;SDS011;54503;55.784;49.138;2022-10-16T00:38:23;18.20;;;5.42;;
67712;SDS011;54503;55.784;49.138;2022-10-16T00:54:17;14.47;;;5.12;;
67712;SDS011;54503;55.784;49.138;2022-10-16T00:59:24;12.93;;;4.80;;
67712;SDS011;54503;55.784;49.138;2022-10-16T01:48:28;13.23;;;4.60;;
67712;SDS011;54503;55.784;49.138;2022-10-16T01:53:34;9.60;;;4.08;;
67712;SDS011;54503;55.784;49.138;2022-10-16T01:58:40;11.50;;;5.17;;
67712;SDS011;54503;55.784;49.138;2022-10-16T02:04:02;11.00;;;4.00;;
67712;SDS011;54503;55.784;49.138;2022-10-16T02:09:21;10.72;;;4.60;;
67712;SDS011;54503;55.784;49.138;2022-10-16T02:14:40;14.67;;;5.10;;
67712;SDS011;54503;55.784;49.138;2022-10-16T02:19:45;11.28;;;4.30;;
67712;SDS011;54503;55.784;49.138;2022-10-16T02:35:43;11.75;;;4.25;;
67712;SDS011;54503;55.784;49.138;2022-10-16T02:41:04;10.03;;;4.33;;
67712;SDS011;54503;55.784;49.138;2022-10-16T02:46:10;13.32;;;4.53;;
67712;SDS011;54503;55.784;49.138;2022-10-16T02:51:15;12.57;;;4.67;;
67712;SDS011;54503;55.784;49.138;2022-10-16T02:56:21;10.58;;;4.65;;
67712;SDS011;54503;55.784;49.138;2022-10-16T03:01:26;11.35;;;4.37;;
67712;SDS011;54503;55.784;49.138;2022-10-16T03:06:31;10.23;;;4.53;;
67712;SDS011;54503;55.784;49.138;2022-10-16T03:11:50;14.35;;;4.45;;
67712;SDS011;54503;55.784;49.138;2022-10-16T03:16:55;10.47;;;4.50;;
67712;SDS011;54503;55.784;49.138;2022-10-16T03:22:00;15.00;;;5.53;;
67712;SDS011;54503;55.784;49.138;2022-10-16T03:27:06;13.08;;;4.87;;
67712;SDS011;54503;55.784;49.138;2022-10-16T03:32:11;13.80;;;5.50;;
67712;SDS011;54503;55.784;49.138;2022-10-16T03:37:17;18.35;;;5.62;;
67712;SDS011;54503;55.784;49.138;2022-10-16T03:42:22;14.57;;;5.27;;
67712;SDS011;54503;55.784;49.138;2022-10-16T03:47:41;15.05;;;5.00;;
67712;SDS011;54503;55.784;49.138;2022-10-16T03:52:46;12.07;;;5.53;;
67712;SDS011;54503;55.784;49.138;2022-10-16T03:57:52;19.20;;;5.50;;
67712;SDS011;54503;55.784;49.138;2022-10-16T04:02:57;13.20;;;5.45;;
67712;SDS011;54503;55.784;49.138;2022-10-16T04:08:02;14.90;;;5.97;;
67712;SDS011;54503;55.784;49.138;2022-10-16T04:13:12;18.73;;;5.60;;
67712;SDS011;54503;55.784;49.138;2022-10-16T04:18:31;13.20;;;5.17;;
67712;SDS011;54503;55.784;49.138;2022-10-16T04:23:36;13.60;;;5.23;;
67712;SDS011;54503;55.784;49.138;2022-10-16T04:28:42;12.20;;;4.72;;
67712;SDS011;54503;55.784;49.138;2022-10-16T04:33:47;13.53;;;5.10;;
67712;SDS011;54503;55.784;49.138;2022-10-16T04:38:52;14.40;;;5.42;;
67712;SDS011;54503;55.784;49.138;2022-10-16T04:44:03;15.85;;;4.87;;
67712;SDS011;54503;55.784;49.138;2022-10-16T04:49:22;13.17;;;4.60;;
67712;SDS011;54503;55.784;49.138;2022-10-16T04:54:27;11.18;;;4.67;;
67712;SDS011;54503;55.784;49.138;2022-10-16T04:59:32;13.20;;;4.30;;
67712;SDS011;54503;55.784;49.138;2022-10-16T05:04:37;14.95;;;4.50;;
67712;SDS011;54503;55.784;49.138;2022-10-16T05:09:42;18.15;;;4.95;;
67712;SDS011;54503;55.784;49.138;2022-10-16T05:15:01;15.47;;;4.90;;
67712;SDS011;54503;55.784;49.138;2022-10-16T05:20:07;15.93;;;4.95;;
67712;SDS011;54503;55.784;49.138;2022-10-16T05:25:13;10.90;;;4.63;;
67712;SDS011;54503;55.784;49.138;2022-10-16T05:30:18;14.75;;;5.25;;
67712;SDS011;54503;55.784;49.138;2022-10-16T05:35:23;15.20;;;5.12;;
67712;SDS011;54503;55.784;49.138;2022-10-16T05:40:43;13.77;;;5.53;;
67712;SDS011;54503;55.784;49.138;2022-10-16T05:51:14;15.83;;;5.40;;
67712;SDS011;54503;55.784;49.138;2022-10-16T05:56:19;17.98;;;6.53;;
67712;SDS011;54503;55.784;49.138;2022-10-16T06:01:24;17.62;;;5.17;;
67712;SDS011;54503;55.784;49.138;2022-10-16T06:06:43;16.63;;;4.83;;
67712;SDS011;54503;55.784;49.138;2022-10-16T06:11:49;15.95;;;5.70;;
67712;SDS011;54503;55.784;49.138;2022-10-16T06:16:54;17.10;;;4.80;;
67712;SDS011;54503;55.784;49.138;2022-10-16T06:21:59;14.95;;;4.83;;
67712;SDS011;54503;55.784;49.138;2022-10-16T06:27:06;17.48;;;4.58;;
67712;SDS011;54503;55.784;49.138;2022-10-16T06:32:25;12.27;;;3.90;;
67712;SDS011;54503;55.784;49.138;2022-10-16T06:37:30;15.78;;;4.45;;
67712;SDS011;54503;55.784;49.138;2022-10-16T06:42:36;18.83;;;4.73;;
67712;SDS011;54503;55.784;49.138;2022-10-16T06:47:41;14.68;;;4.60;;
67712;SDS011;54503;55.784;49.138;2022-10-16T06:52:47;11.85;;;3.60;;
67712;SDS011;54503;55.784;49.138;2022-10-16T06:57:52;16.07;;;3.93;;
67712;SDS011;54503;55.784;49.138;2022-10-16T07:03:11;12.58;;;4.10;;
67712;SDS011;54503;55.784;49.138;2022-10-16T07:08:16;14.70;;;4.43;;
67712;SDS011;54503;55.784;49.138;2022-10-16T07:13:22;17.52;;;4.75;;
67712;SDS011;54503;55.784;49.138;2022-10-16T07:18:28;19.00;;;4.28;;
67712;SDS011;54503;55.784;49.138;2022-10-16T07:23:33;13.20;;;4.37;;
67712;SDS011;54503;55.784;49.138;2022-10-16T07:28:38;14.68;;;4.40;;
67712;SDS011;54503;55.784;49.138;2022-10-16T07:33:48;15.20;;;5.20;;
67712;SDS011;54503;55.784;49.138;2022-10-16T07:39:07;18.87;;;4.28;;
67712;SDS011;54503;55.784;49.138;2022-10-16T07:44:15;13.15;;;4.47;;
67712;SDS011;54503;55.784;49.138;2022-10-16T07:49:20;13.03;;;4.83;;
67712;SDS011;54503;55.784;49.138;2022-10-16T07:54:25;11.15;;;4.70;;
67712;SDS011;54503;55.784;49.138;2022-10-16T07:59:31;11.37;;;4.50;;
67712;SDS011;54503;55.784;49.138;2022-10-16T08:04:46;13.40;;;5.20;;
67712;SDS011;54503;55.784;49.138;2022-10-16T08:10:05;11.75;;;4.00;;
67712;SDS011;54503;55.784;49.138;2022-10-16T08:15:10;11.23;;;4.03;;
67712;SDS011;54503;55.784;49.138;2022-10-16T08:20:15;15.85;;;4.28;;
67712;SDS011;54503;55.784;49.138;2022-10-16T08:25:21;13.63;;;4.70;;
67712;SDS011;54503;55.784;49.138;2022-10-16T08:30:28;12.37;;;4.60;;
67712;SDS011;54503;55.784;49.138;2022-10-16T08:35:43;15.00;;;4.58;;
67712;SDS011;54503;55.784;49.138;2022-10-16T08:51:53;15.43;;;4.78;;
67712;SDS011;54503;55.784;49.138;2022-10-16T08:57:14;12.47;;;4.53;;
67712;SDS011;54503;55.784;49.138;2022-10-16T09:29:24;12.73;;;4.95;;
67712;SDS011;54503;55.784;49.138;2022-10-16T09:39:55;11.80;;;4.67;;
67712;SDS011;54503;55.784;49.138;2022-10-16T09:56:33;14.33;;;6.00;;
67712;SDS011;54503;55.784;49.138;2022-10-16T10:06:59;16.67;;;6.53;;
67712;SDS011;54503;55.784;49.138;2022-10-16T10:12:04;13.85;;;5.53;;
67712;SDS011;54503;55.784;49.138;2022-10-16T10:17:12;15.83;;;6.08;;
67712;SDS011;54503;55.784;49.138;2022-10-16T10:22:32;15.17;;;5.87;;
67712;SDS011;54503;55.784;49.138;2022-10-16T10:33:33;15.13;;;5.70;;
67712;SDS011;54503;55.784;49.138;2022-10-16T11:06:11;18.20;;;6.40;;
67712;SDS011;54503;55.784;49.138;2022-10-16T11:49:30;18.55;;;5.97;;
67712;SDS011;54503;55.784;49.138;2022-10-16T12:00:28;13.43;;;5.13;;
67712;SDS011;54503;55.784;49.138;2022-10-16T12:10:40;12.80;;;4.53;;
67712;SDS011;54503;55.784;49.138;2022-10-16T12:21:38;13.40;;;4.53;;
67712;SDS011;54503;55.784;49.138;2022-10-16T12:26:58;15.20;;;4.97;;
67712;SDS011;54503;55.784;49.138;2022-10-16T12:37:42;13.73;;;5.27;;
67712;SDS011;54503;55.784;49.138;2022-10-16T12:43:35;23.02;;;5.25;;
67712;SDS011;54503;55.784;49.138;2022-10-16T12:48:27;20.62;;;5.28;;
67712;SDS011;54503;55.784;49.138;2022-10-16T12:53:34;18.80;;;4.63;;
67712;SDS011;54503;55.784;49.138;2022-10-16T13:31:30;16.93;;;5.20;;
67712;SDS011;54503;55.784;49.138;2022-10-16T13:36:50;14.20;;;5.83;;
67712;SDS011;54503;55.784;49.138;2022-10-16T13:47:34;14.80;;;5.65;;
67712;SDS011;54503;55.784;49.138;2022-10-16T13:52:40;19.90;;;5.63;;
67712;SDS011;54503;55.784;49.138;2022-10-16T13:57:46;42.95;;;7.55;;
67712;SDS011;54503;55.784;49.138;2022-10-16T14:02:52;18.62;;;6.47;;
67712;SDS011;54503;55.784;49.138;2022-10-16T14:08:11;36.10;;;6.55;;
67712;SDS011;54503;55.784;49.138;2022-10-16T14:13:20;33.07;;;6.40;;
67712;SDS011;54503;55.784;49.138;2022-10-16T14:18:39;32.03;;;7.60;;
67712;SDS011;54503;55.784;49.138;2022-10-16T14:23:45;19.40;;;5.57;;
67712;SDS011;54503;55.784;49.138;2022-10-16T14:39:51;44.77;;;6.77;;
67712;SDS011;54503;55.784;49.138;2022-10-16T14:44:57;24.10;;;5.50;;
67712;SDS011;54503;55.784;49.138;2022-10-16T14:50:02;23.75;;;5.55;;
67712;SDS011;54503;55.784;49.138;2022-10-16T14:55:07;12.80;;;4.80;;
67712;SDS011;54503;55.784;49.138;2022-10-16T15:00:26;10.43;;;4.00;;
67712;SDS011;54503;55.784;49.138;2022-10-16T15:05:45;14.13;;;4.53;;
67712;SDS011;54503;55.784;49.138;2022-10-16T15:10:51;14.70;;;3.63;;
67712;SDS011;54503;55.784;49.138;2022-10-16T15:15:56;15.08;;;3.90;;
67712;SDS011;54503;55.784;49.138;2022-10-16T15:21:20;15.72;;;3.75;;
67712;SDS011;54503;55.784;49.138;2022-10-16T15:26:36;11.10;;;3.67;;
67712;SDS011;54503;55.784;49.138;2022-10-16T15:31:55;12.10;;;3.80;;
67712;SDS011;54503;55.784;49.138;2022-10-16T15:37:02;15.90;;;4.17;;
67712;SDS011;54503;55.784;49.138;2022-10-16T15:42:48;20.83;;;4.03;;
67712;SDS011;54503;55.784;49.138;2022-10-16T15:53:52;12.07;;;3.97;;
67712;SDS011;54503;55.784;49.138;2022-10-16T15:59:16;15.83;;;4.10;;
67712;SDS011;54503;55.784;49.138;2022-10-16T16:04:40;17.57;;;5.55;;
67712;SDS011;54503;55.784;49.138;2022-10-16T16:10:05;22.67;;;7.00;;
67712;SDS011;54503;55.784;49.138;2022-10-16T16:15:27;20.72;;;8.25;;
67712;SDS011;54503;55.784;49.138;2022-10-16T16:20:32;18.15;;;8.30;;
67712;SDS011;54503;55.784;49.138;2022-10-16T16:25:37;22.97;;;8.87;;
67712;SDS011;54503;55.784;49.138;2022-10-16T16:30:56;30.17;;;9.13;;
67712;SDS011;54503;55.784;49.138;2022-10-16T16:36:16;30.60;;;10.85;;
67712;SDS011;54503;55.784;49.138;2022-10-16T16:41:35;33.30;;;12.00;;
67712;SDS011;54503;55.784;49.138;2022-10-16T16:46:41;34.83;;;12.90;;
67712;SDS011;54503;55.784;49.138;2022-10-16T16:52:00;40.05;;;12.82;;
67712;SDS011;54503;55.784;49.138;2022-10-16T16:57:05;41.73;;;13.27;;
67712;SDS011;54503;55.784;49.138;2022-10-16T17:02:11;32.53;;;12.75;;
67712;SDS011;54503;55.784;49.138;2022-10-16T17:07:17;32.50;;;12.30;;
67712;SDS011;54503;55.784;49.138;2022-10-16T17:12:36;30.77;;;11.97;;
67712;SDS011;54503;55.784;49.138;2022-10-16T17:17:55;37.67;;;12.18;;
67712;SDS011;54503;55.784;49.138;2022-10-16T17:23:01;25.83;;;11.00;;
67712;SDS011;54503;55.784;49.138;2022-10-16T17:28:33;24.23;;;10.37;;
67712;SDS011;54503;55.784;49.138;2022-10-16T17:33:53;33.83;;;9.98;;
67712;SDS011;54503;55.784;49.138;2022-10-16T17:38:58;23.57;;;10.37;;
67712;SDS011;54503;55.784;49.138;2022-10-16T17:44:05;28.38;;;9.40;;
67712;SDS011;54503;55.784;49.138;2022-10-16T17:49:20;17.67;;;7.92;;
67712;SDS011;54503;55.784;49.138;2022-10-16T17:54:39;22.87;;;8.93;;
67712;SDS011;54503;55.784;49.138;2022-10-16T17:59:58;20.32;;;8.38;;
67712;SDS011;54503;55.784;49.138;2022-10-16T18:05:03;22.95;;;8.10;;
67712;SDS011;54503;55.784;49.138;2022-10-16T18:10:34;18.77;;;8.05;;
67712;SDS011;54503;55.784;49.138;2022-10-16T18:15:40;19.23;;;7.75;;
67712;SDS011;54503;55.784;49.138;2022-10-16T18:21:00;25.57;;;8.45;;
67712;SDS011;54503;55.784;49.138;2022-10-16T18:26:20;25.77;;;7.80;;
67712;SDS011;54503;55.784;49.138;2022-10-16T18:31:40;22.70;;;7.92;;
67712;SDS011;54503;55.784;49.138;2022-10-16T18:36:59;26.42;;;8.20;;
67712;SDS011;54503;55.784;49.138;2022-10-16T18:42:04;24.23;;;7.50;;
67712;SDS011;54503;55.784;49.138;2022-10-16T18:47:10;23.92;;;7.70;;
67712;SDS011;54503;55.784;49.138;2022-10-16T18:52:15;22.30;;;7.57;;
67712;SDS011;54503;55.784;49.138;2022-10-16T18:57:34;21.00;;;7.58;;
67712;SDS011;54503;55.784;49.138;2022-10-16T19:02:53;20.70;;;7.58;;
67712;SDS011;54503;55.784;49.138;2022-10-16T19:07:58;27.53;;;7.77;;
67712;SDS011;54503;55.784;49.138;2022-10-16T19:13:04;21.30;;;7.47;;
67712;SDS011;54503;55.784;49.138;2022-10-16T19:18:10;19.50;;;6.80;;
67712;SDS011;54503;55.784;49.138;2022-10-16T19:23:28;17.27;;;6.47;;
67712;SDS011;54503;55.784;49.138;2022-10-16T19:28:33;17.75;;;6.05;;
67712;SDS011;54503;55.784;49.138;2022-10-16T19:33:39;15.87;;;6.37;;
67712;SDS011;54503;55.784;49.138;2022-10-16T19:38:59;22.45;;;6.60;;
67712;SDS011;54503;55.784;49.138;2022-10-16T19:44:20;16.25;;;5.30;;
67712;SDS011;54503;55.784;49.138;2022-10-16T19:49:25;16.05;;;5.20;;
67712;SDS011;54503;55.784;49.138;2022-10-16T19:54:44;18.85;;;4.90;;
67712;SDS011;54503;55.784;49.138;2022-10-16T20:00:04;12.15;;;4.80;;
67712;SDS011;54503;55.784;49.138;2022-10-16T20:05:23;17.43;;;4.57;;
67712;SDS011;54503;55.784;49.138;2022-10-16T20:16:07;13.25;;;4.92;;
67712;SDS011;54503;55.784;49.138;2022-10-16T20:21:15;10.98;;;4.62;;
67712;SDS011;54503;55.784;49.138;2022-10-16T20:26:22;11.53;;;4.35;;
67712;SDS011;54503;55.784;49.138;2022-10-16T20:31:41;12.05;;;4.90;;
67712;SDS011;54503;55.784;49.138;2022-10-16T20:36:47;15.10;;;5.50;;
67712;SDS011;54503;55.784;49.138;2022-10-16T20:41:53;20.68;;;6.40;;
67712;SDS011;54503;55.784;49.138;2022-10-16T20:47:12;14.73;;;5.63;;
67712;SDS011;54503;55.784;49.138;2022-10-16T20:52:31;21.70;;;6.40;;
67712;SDS011;54503;55.784;49.138;2022-10-16T20:57:38;26.35;;;8.73;;
67712;SDS011;54503;55.784;49.138;2022-10-16T21:02:44;22.30;;;8.60;;
67712;SDS011;54503;55.784;49.138;2022-10-16T21:07:50;25.82;;;9.98;;
67712;SDS011;54503;55.784;49.138;2022-10-16T21:13:09;30.05;;;8.83;;
67712;SDS011;54503;55.784;49.138;2022-10-16T21:18:14;26.30;;;8.30;;
67712;SDS011;54503;55.784;49.138;2022-10-16T21:23:19;26.12;;;8.83;;
67712;SDS011;54503;55.784;49.138;2022-10-16T21:28:38;27.45;;;8.80;;
67712;SDS011;54503;55.784;49.138;2022-10-16T21:33:57;26.57;;;9.25;;
67712;SDS011;54503;55.784;49.138;2022-10-16T21:39:23;22.87;;;9.15;;
67712;SDS011;54503;55.784;49.138;2022-10-16T21:44:28;28.45;;;7.97;;
67712;SDS011;54503;55.784;49.138;2022-10-16T21:49:47;23.40;;;7.80;;
67712;SDS011;54503;55.784;49.138;2022-10-16T21:55:06;22.52;;;7.08;;
67712;SDS011;54503;55.784;49.138;2022-10-16T22:00:12;23.75;;;7.78;;
67712;SDS011;54503;55.784;49.138;2022-10-16T22:05:46;20.52;;;7.17;;
67712;SDS011;54503;55.784;49.138;2022-10-16T22:10:51;24.53;;;7.93;;
67712;SDS011;54503;55.784;49.138;2022-10-16T22:21:41;21.17;;;9.23;;
67712;SDS011;54503;55.784;49.138;2022-10-16T22:26:48;25.87;;;8.43;;
67712;SDS011;54503;55.784;49.138;2022-10-16T22:32:07;22.95;;;7.70;;
67712;SDS011;54503;55.784;49.138;2022-10-16T22:37:26;17.42;;;7.40;;
67712;SDS011;54503;55.784;49.138;2022-10-16T22:42:45;17.65;;;7.10;;
67712;SDS011;54503;55.784;49.138;2022-10-16T22:47:51;20.05;;;6.55;;
67712;SDS011;54503;55.784;49.138;2022-10-16T22:52:56;24.67;;;7.20;;
67712;SDS011;54503;55.784;49.138;2022-10-16T22:58:15;25.25;;;7.22;;
67712;SDS011;54503;55.784;49.138;2022-10-16T23:03:34;27.00;;;7.75;;
67712;SDS011;54503;55.784;49.138;2022-10-16T23:09:00;27.53;;;9.17;;
67712;SDS011;54503;55.784;49.138;2022-10-16T23:14:05;19.27;;;8.45;;
67712;SDS011;54503;55.784;49.138;2022-10-16T23:19:25;25.25;;;8.90;;
67712;SDS011;54503;55.784;49.138;2022-10-16T23:24:30;26.52;;;8.68;;
67712;SDS011;54503;55.784;49.138;2022-10-16T23:29:36;21.17;;;8.23;;
67712;SDS011;54503;55.784;49.138;2022-10-16T23:34:55;26.82;;;8.33;;
67712;SDS011;54503;55.784;49.138;2022-10-16T23:40:00;18.80;;;7.22;;
67712;SDS011;54503;55.784;49.138;2022-10-16T23:45:20;16.32;;;6.97;;
67712;SDS011;54503;55.784;49.138;2022-10-16T23:50:25;15.83;;;6.70;;
67712;SDS011;54503;55.784;49.138;2022-10-16T23:55:30;16.00;;;7.03;;
